createdAt,value
2022-11-27T00:00:14.038Z,24.35
2022-11-27T00:04:21.790Z,27.50
2022-11-27T00:08:25.157Z,29.25
2022-11-27T00:12:26.674Z,24.80
2022-11-27T00:16:28.578Z,31.88
2022-11-27T00:20:30.201Z,23.55
2022-11-27T00:24:31.658Z,24.40
2022-11-27T00:28:33.974Z,24.60
2022-11-27T00:32:35.457Z,21.38
2022-11-27T00:36:37.811Z,18.77
2022-11-27T00:40:39.236Z,24.35
2022-11-27T00:44:40.867Z,31.17
2022-11-27T00:48:43.226Z,26.63
2022-11-27T00:52:44.724Z,29.10
2022-11-27T00:56:46.183Z,28.10
2022-11-27T01:00:54.876Z,27.23
2022-11-27T01:04:56.425Z,25.35
2022-11-27T01:08:59.191Z,29.13
2022-11-27T01:13:00.683Z,26.17
2022-11-27T01:17:02.290Z,28.05
2022-11-27T01:21:04.424Z,22.80
2022-11-27T01:25:06.482Z,25.85
2022-11-27T01:29:08.110Z,21.25
2022-11-27T01:33:09.519Z,24.55
2022-11-27T01:37:10.944Z,32.78
2022-11-27T01:41:27.602Z,36.58
2022-11-27T01:45:29.175Z,31.10
2022-11-27T01:49:52.779Z,21.92
2022-11-27T01:53:54.720Z,27.80
2022-11-27T01:58:05.382Z,27.60
2022-11-27T02:02:07.103Z,33.15
2022-11-27T02:06:12.862Z,28.35
2022-11-27T02:10:16.131Z,32.05
2022-11-27T02:14:29.840Z,27.23
2022-11-27T02:18:43.409Z,31.42
2022-11-27T02:23:29.608Z,30.40
2022-11-27T02:28:05.111Z,31.52
2022-11-27T02:32:16.830Z,32.97
2022-11-27T02:36:23.380Z,24.48
2022-11-27T02:40:36.087Z,28.70
2022-11-27T02:44:44.470Z,27.05
2022-11-27T02:48:53.193Z,27.88
2022-11-27T02:53:00.185Z,22.30
2022-11-27T02:57:04.900Z,30.63
2022-11-27T03:01:08.302Z,31.35
2022-11-27T03:05:14.545Z,38.03
2022-11-27T03:09:25.106Z,83.80
2022-11-27T03:13:27.756Z,26.35
2022-11-27T03:17:41.149Z,50.85
2022-11-27T03:21:47.646Z,30.65
2022-11-27T03:25:49.219Z,31.27
2022-11-27T03:29:58.080Z,27.08
2022-11-27T03:33:59.597Z,29.27
2022-11-27T03:38:01.103Z,24.58
2022-11-27T03:42:08.601Z,30.90
2022-11-27T03:46:23.687Z,23.15
2022-11-27T03:50:46.766Z,27.27
2022-11-27T03:55:01.292Z,22.38
2022-11-27T03:59:25.360Z,26.42
2022-11-27T04:03:29.071Z,28.80
2022-11-27T04:07:30.679Z,29.50
2022-11-27T04:11:32.286Z,23.85
2022-11-27T04:15:33.699Z,24.88
2022-11-27T04:19:35.228Z,28.85
2022-11-27T04:23:38.433Z,24.48
2022-11-27T04:27:39.951Z,29.05
2022-11-27T04:31:41.460Z,20.95
2022-11-27T04:35:43.362Z,29.42
2022-11-27T04:39:44.792Z,25.95
2022-11-27T04:43:46.221Z,27.08
2022-11-27T04:47:47.941Z,21.85
2022-11-27T04:51:49.427Z,25.33
2022-11-27T04:55:52.309Z,24.58
2022-11-27T04:59:53.783Z,29.88
2022-11-27T05:03:55.228Z,24.48
2022-11-27T05:07:56.756Z,26.45
2022-11-27T05:11:58.294Z,20.15
2022-11-27T05:16:00.069Z,21.75
2022-11-27T05:20:01.549Z,24.48
2022-11-27T05:24:03.182Z,18.77
2022-11-27T05:28:04.979Z,26.50
2022-11-27T05:32:06.469Z,24.92
2022-11-27T05:36:08.260Z,23.02
2022-11-27T05:40:10.132Z,23.85
2022-11-27T05:44:15.249Z,19.33
2022-11-27T05:48:19.446Z,29.00
2022-11-27T05:52:20.951Z,25.25
2022-11-27T05:56:22.432Z,18.27
2022-11-27T06:00:24.651Z,22.13
2022-11-27T06:04:31.792Z,21.92
2022-11-27T06:08:33.306Z,21.50
2022-11-27T06:12:34.749Z,24.83
2022-11-27T06:16:39.463Z,24.73
2022-11-27T06:20:44.638Z,25.58
2022-11-27T06:24:49.552Z,23.17
2022-11-27T06:28:51.367Z,27.33
2022-11-27T06:32:52.853Z,26.40
2022-11-27T06:37:00.978Z,22.52
2022-11-27T06:41:12.494Z,27.83
2022-11-27T06:45:14.060Z,22.27
2022-11-27T06:49:17.811Z,30.20
2022-11-27T06:53:22.266Z,32.75
2022-11-27T06:57:23.769Z,25.95
2022-11-27T07:01:30.059Z,24.17
2022-11-27T07:05:31.668Z,24.50
2022-11-27T07:09:33.124Z,31.38
2022-11-27T07:13:35.213Z,21.15
2022-11-27T07:17:37.961Z,24.90
2022-11-27T07:21:39.632Z,23.30
2022-11-27T07:25:41.092Z,23.65
2022-11-27T07:29:44.702Z,23.45
2022-11-27T07:33:46.185Z,24.58
2022-11-27T07:37:47.709Z,20.48
2022-11-27T07:41:49.157Z,23.55
2022-11-27T07:45:53.212Z,28.15
2022-11-27T07:49:55.202Z,24.40
2022-11-27T07:53:57.102Z,27.33
2022-11-27T07:57:58.566Z,26.70
2022-11-27T08:02:00.019Z,26.00
2022-11-27T08:06:05.077Z,22.35
2022-11-27T08:10:07.854Z,18.55
2022-11-27T08:14:09.712Z,28.77
2022-11-27T08:18:11.158Z,24.00
2022-11-27T08:22:14.448Z,27.08
2022-11-27T08:26:16.389Z,22.80
2022-11-27T08:30:17.997Z,22.05
2022-11-27T08:34:19.466Z,17.88
2022-11-27T08:38:21.797Z,20.15
2022-11-27T08:42:23.476Z,23.08
2022-11-27T08:46:24.993Z,12.25
2022-11-27T08:50:26.439Z,21.05
2022-11-27T08:54:27.941Z,14.63
2022-11-27T08:58:29.405Z,20.33
2022-11-27T09:02:30.853Z,22.05
2022-11-27T09:06:34.763Z,17.27
2022-11-27T09:10:36.885Z,17.98
2022-11-27T09:14:40.067Z,19.17
2022-11-27T09:18:44.492Z,17.17
2022-11-27T09:22:45.993Z,13.68
2022-11-27T09:26:47.496Z,14.10
2022-11-27T09:30:49.076Z,12.68
2022-11-27T09:34:53.461Z,15.10
2022-11-27T09:38:57.456Z,18.73
2022-11-27T09:43:09.855Z,17.00
2022-11-27T09:47:28.247Z,11.43
2022-11-27T09:51:44.086Z,12.98
2022-11-27T09:55:51.604Z,12.45
2022-11-27T09:59:55.015Z,13.55
2022-11-27T10:03:56.810Z,19.13
2022-11-27T10:08:23.720Z,16.00
2022-11-27T10:12:25.151Z,13.48
2022-11-27T10:16:42.931Z,15.55
2022-11-27T10:20:52.398Z,11.82
2022-11-27T10:25:08.056Z,10.15
2022-11-27T10:29:36.109Z,12.40
2022-11-27T10:33:53.694Z,14.73
2022-11-27T10:38:11.369Z,14.57
2022-11-27T10:42:22.299Z,14.60
2022-11-27T10:46:37.032Z,9.98
2022-11-27T10:50:39.693Z,16.15
2022-11-27T10:54:42.896Z,9.77
2022-11-27T10:59:04.850Z,11.27
2022-11-27T11:03:07.190Z,13.20
2022-11-27T11:07:29.360Z,10.38
2022-11-27T11:11:30.857Z,10.93
2022-11-27T11:15:33.214Z,15.15
2022-11-27T11:19:37.687Z,15.50
2022-11-27T11:23:40.935Z,12.80
2022-11-27T11:27:43.886Z,11.23
2022-11-27T11:31:45.512Z,13.18
2022-11-27T11:35:55.649Z,12.07
2022-11-27T11:40:13.170Z,14.20
2022-11-27T11:44:25.735Z,13.18
2022-11-27T11:48:28.128Z,12.57
2022-11-27T11:52:41.673Z,13.55
2022-11-27T11:56:49.509Z,13.20
2022-11-27T12:01:28.511Z,9.32
2022-11-27T12:05:57.228Z,13.25
2022-11-27T12:10:05.278Z,16.05
2022-11-27T12:14:27.675Z,10.50
2022-11-27T12:18:48.691Z,11.27
2022-11-27T12:23:11.792Z,16.13
2022-11-27T12:27:39.600Z,12.32
2022-11-27T12:32:13.265Z,15.10
2022-11-27T12:36:20.905Z,9.85
2022-11-27T12:40:28.222Z,8.50
2022-11-27T12:44:54.593Z,11.60
2022-11-27T12:49:01.434Z,12.10
2022-11-27T12:53:15.993Z,9.88
2022-11-27T12:57:27.323Z,9.93
2022-11-27T13:01:36.346Z,10.70
2022-11-27T13:05:55.038Z,11.05
2022-11-27T13:10:25.662Z,12.70
2022-11-27T13:14:28.353Z,12.32
2022-11-27T13:18:37.257Z,9.93
2022-11-27T13:22:39.167Z,10.77
2022-11-27T13:26:44.090Z,11.52
2022-11-27T13:30:47.320Z,13.10
2022-11-27T13:34:50.751Z,10.52
2022-11-27T13:38:56.437Z,10.65
2022-11-27T13:43:05.292Z,14.00
2022-11-27T13:47:12.120Z,9.20
2022-11-27T13:51:26.676Z,9.30
2022-11-27T13:55:31.271Z,7.07
2022-11-27T13:59:36.443Z,11.15
2022-11-27T14:03:40.723Z,10.40
2022-11-27T14:08:00.411Z,15.27
2022-11-27T14:12:13.418Z,10.15
2022-11-27T14:16:35.764Z,7.93
2022-11-27T14:20:47.790Z,12.75
2022-11-27T14:24:55.807Z,13.50
2022-11-27T14:28:59.780Z,6.45
2022-11-27T14:33:05.168Z,10.50
2022-11-27T14:37:06.745Z,15.70
2022-11-27T14:41:15.639Z,10.35
2022-11-27T14:45:20.496Z,11.60
2022-11-27T14:49:24.867Z,9.02
2022-11-27T14:53:27.638Z,10.95
2022-11-27T14:57:30.445Z,13.40
2022-11-27T15:01:34.523Z,15.43
2022-11-27T15:05:38.371Z,15.00
2022-11-27T15:09:44.870Z,7.97
2022-11-27T15:13:55.001Z,10.23
2022-11-27T15:22:00.247Z,11.38
2022-11-27T15:26:01.866Z,12.48
2022-11-27T15:30:12.049Z,14.02
2022-11-27T15:34:13.518Z,11.63
2022-11-27T15:38:18.141Z,9.02
2022-11-27T15:42:20.819Z,10.20
2022-11-27T15:46:30.072Z,11.77
2022-11-27T15:50:31.918Z,8.38
2022-11-27T15:54:33.348Z,7.47
2022-11-27T15:58:34.808Z,15.45
2022-11-27T16:02:37.703Z,12.25
2022-11-27T16:06:39.253Z,11.05
2022-11-27T16:10:41.429Z,8.70
2022-11-27T16:14:43.042Z,11.95
2022-11-27T16:18:44.850Z,10.77
2022-11-27T16:22:46.333Z,10.68
2022-11-27T16:26:47.991Z,11.07
2022-11-27T16:30:49.505Z,10.90
2022-11-27T16:34:51.156Z,22.67
2022-11-27T16:38:54.507Z,14.02
2022-11-27T16:42:56.009Z,16.88
2022-11-27T16:46:57.519Z,14.63
2022-11-27T16:51:10.099Z,11.25
2022-11-27T16:55:11.641Z,11.15
2022-11-27T16:59:14.925Z,13.63
2022-11-27T17:03:19.737Z,12.77
2022-11-27T17:07:30.227Z,8.35
2022-11-27T17:11:33.877Z,14.30
2022-11-27T17:15:40.357Z,14.20
2022-11-27T17:19:42.612Z,16.70
2022-11-27T17:23:46.785Z,10.82
2022-11-27T17:27:49.038Z,13.30
2022-11-27T17:31:50.721Z,14.40
2022-11-27T17:35:52.371Z,14.10
2022-11-27T17:39:57.104Z,14.65
2022-11-27T17:44:01.452Z,14.48
2022-11-27T17:48:02.983Z,15.40
2022-11-27T17:52:18.833Z,11.40
2022-11-27T17:56:38.139Z,16.25
2022-11-27T18:00:44.394Z,13.45
2022-11-27T18:04:46.132Z,14.35
2022-11-27T18:08:47.845Z,17.23
2022-11-27T18:12:49.315Z,16.65
2022-11-27T18:16:53.677Z,15.07
2022-11-27T18:20:55.571Z,15.77
2022-11-27T18:25:03.685Z,13.20
2022-11-27T18:29:23.998Z,10.48
2022-11-27T18:37:40.885Z,16.67
2022-11-27T18:41:48.593Z,11.18
2022-11-27T18:45:50.253Z,12.07
2022-11-27T18:49:51.902Z,16.20
2022-11-27T18:53:56.630Z,14.10
2022-11-27T18:58:04.265Z,12.23
2022-11-27T19:02:11.915Z,11.98
2022-11-27T19:06:16.732Z,13.70
2022-11-27T19:10:18.506Z,11.95
2022-11-27T19:14:19.988Z,17.48
2022-11-27T19:18:21.482Z,15.98
2022-11-27T19:22:23.084Z,16.40
2022-11-27T19:30:48.516Z,12.85
2022-11-27T19:34:51.165Z,14.73
2022-11-27T19:39:05.008Z,11.07
2022-11-27T19:43:09.335Z,15.45
2022-11-27T19:47:18.964Z,11.35
2022-11-27T19:51:52.289Z,13.88
2022-11-27T19:55:55.633Z,13.68
2022-11-27T20:04:34.277Z,13.30
2022-11-27T20:08:36.195Z,16.30
2022-11-27T20:12:40.978Z,13.73
2022-11-27T20:16:42.496Z,14.75
2022-11-27T20:21:01.664Z,10.95
2022-11-27T20:25:18.869Z,15.07
2022-11-27T20:29:23.749Z,19.38
2022-11-27T20:33:25.887Z,10.95
2022-11-27T20:42:04.369Z,17.60
2022-11-27T20:46:13.163Z,14.30
2022-11-27T20:50:17.630Z,11.10
2022-11-27T20:58:52.615Z,14.23
2022-11-27T21:02:54.280Z,12.10
2022-11-27T21:07:11.543Z,16.65
2022-11-27T21:11:24.919Z,14.68
2022-11-27T21:15:26.548Z,18.10
2022-11-27T21:19:37.175Z,23.33
2022-11-27T21:23:40.527Z,16.70
2022-11-27T21:27:59.216Z,17.52
2022-11-27T21:32:00.843Z,18.45
2022-11-27T21:36:03.236Z,16.85
2022-11-27T21:40:10.308Z,17.63
2022-11-27T21:44:13.224Z,22.08
2022-11-27T21:48:14.715Z,12.68
2022-11-27T21:52:16.349Z,19.75
2022-11-27T21:56:20.268Z,17.80
2022-11-27T22:00:22.208Z,20.48
2022-11-27T22:04:27.201Z,15.77
2022-11-27T22:08:31.362Z,20.15
2022-11-27T22:12:32.836Z,15.10
2022-11-27T22:16:41.327Z,14.90
2022-11-27T22:20:46.116Z,20.15
2022-11-27T22:24:47.530Z,16.52
2022-11-27T22:28:49.582Z,18.67
2022-11-27T22:32:57.428Z,17.95
2022-11-27T22:36:58.851Z,25.17
2022-11-27T22:41:00.248Z,16.98
2022-11-27T22:45:01.822Z,14.35
2022-11-27T22:49:06.252Z,20.60
2022-11-27T22:53:07.679Z,18.85
2022-11-27T22:57:09.140Z,16.83
2022-11-27T23:01:16.408Z,16.52
2022-11-27T23:05:17.819Z,18.27
2022-11-27T23:09:19.386Z,20.60
2022-11-27T23:13:20.904Z,19.83
2022-11-27T23:17:22.468Z,14.95
2022-11-27T23:21:24.541Z,15.80
2022-11-27T23:25:28.178Z,15.88
2022-11-27T23:29:29.628Z,17.48
2022-11-27T23:33:31.075Z,16.02
2022-11-27T23:37:32.570Z,18.30
2022-11-27T23:41:34.157Z,17.02
2022-11-27T23:45:37.913Z,15.75
2022-11-27T23:49:39.336Z,22.77
2022-11-27T23:53:41.612Z,17.67
2022-11-27T23:57:43.096Z,18.77
